SBOSBO VIE / LOWW
Speedbird OnlineSpeedbird Online VIE / LOWW

Vienna International Airport
01:18 -3.9°C

Location Vienna, Austria
Latitude: 48.110298156738
Longitude: 16.569700241089
Web Airport Website | Wikipedia
Altitude 183 Meter / 600 Feet
Distance 1,236 KM / 768 Miles
from London.
Time Zone UTC +1 hours (Europe/Vienna)
Codes IATA: VIE
ICAO: LOWW
Currency £1 equals EUR 1.13
Runways
RunwayLength (m)Surface
113500Asphalt
163600Asphalt
293500Asphalt
343600Asphalt
Radio
TypeDescriptionFrequency
APPWIEN RADAR134.675
ATISATIS121.73
CLDWIEN CLNC DEL122.125
DIRDIRECTOR119.8
GNDWIEN GND121.6
INFOINFO118.525
RMPVIENNA ICE131.625
TWRWIEN TWR119.4
Live ATC
METAR LOWW 081420Z 15005KT 120V190 CAVOK 01/M06 Q1041 NOSIG
TAF TAF LOWW 081415Z 0815/0921 14006KT CAVOK TX02/0914Z TNM06/0905Z TEMPO 0912/0917 15016KT
Weather As Of 09 Feb 2023 01:16
Description Clear sky
Wind 13 km/h from South-East (146°)
Cloud Cover 2%
Precipitation Rain: none, Snow: none
Sunrise 07:11
Sunset 17:04
Lounges Vienna lounge, 2
Sky Lounge , Terminal 3
Air Lounge TEMPORARILY CLOSED, Terminal 3
Rotations During the last 90 days there were
280 flights from LHR
279 flights to LHR



Support Speedbird Online

© 2017-2023 Speedbird Online